createdAt,value
2023-04-02T00:00:03.264Z,60.80
2023-04-02T00:01:03.254Z,59.67
2023-04-02T00:02:03.289Z,62.23
2023-04-02T00:03:03.300Z,61.27
2023-04-02T00:04:03.264Z,58.70
2023-04-02T00:05:03.195Z,60.43
2023-04-02T00:06:03.185Z,58.28
2023-04-02T00:07:03.164Z,58.49
2023-04-02T00:08:03.179Z,62.95
2023-04-02T00:09:03.149Z,60.09
2023-04-02T00:10:03.130Z,59.77
2023-04-02T00:11:03.138Z,60.74
2023-04-02T00:12:03.107Z,60.36
2023-04-02T00:13:03.083Z,62.73
2023-04-02T00:14:03.071Z,59.62
2023-04-02T00:15:03.059Z,59.68
2023-04-02T00:16:03.069Z,57.40
2023-04-02T00:17:03.041Z,60.32
2023-04-02T00:18:03.056Z,60.29
2023-04-02T00:19:03.032Z,56.91
2023-04-02T00:20:03.002Z,59.12
2023-04-02T00:21:02.989Z,59.39
2023-04-02T00:22:02.976Z,59.42
2023-04-02T00:23:02.957Z,59.17
2023-04-02T00:24:02.978Z,59.70
2023-04-02T00:25:02.903Z,57.33
2023-04-02T00:26:02.888Z,60.87
2023-04-02T00:27:02.914Z,59.87
2023-04-02T00:28:02.878Z,60.73
2023-04-02T00:29:02.905Z,59.68
2023-04-02T00:30:02.893Z,61.90
2023-04-02T00:31:02.909Z,57.63
2023-04-02T00:32:02.948Z,62.25
2023-04-02T00:33:02.906Z,58.92
2023-04-02T00:34:02.900Z,57.70
2023-04-02T00:35:02.905Z,62.63
2023-04-02T00:36:02.946Z,57.19
2023-04-02T00:37:02.912Z,54.94
2023-04-02T00:38:02.914Z,60.37
2023-04-02T00:39:02.927Z,63.96
2023-04-02T00:40:02.944Z,63.91
2023-04-02T00:41:02.949Z,60.19
2023-04-02T00:42:02.949Z,58.52
2023-04-02T00:43:02.952Z,54.56
2023-04-02T00:44:02.953Z,58.22
2023-04-02T00:45:02.954Z,57.08
2023-04-02T00:46:02.971Z,58.44
2023-04-02T00:47:02.940Z,55.01
2023-04-02T00:48:03.033Z,56.63
2023-04-02T00:49:02.968Z,58.08
2023-04-02T00:50:03.036Z,58.97
2023-04-02T00:51:02.965Z,55.92
2023-04-02T00:52:02.953Z,58.84
2023-04-02T00:53:02.966Z,56.53
2023-04-02T00:54:02.963Z,56.07
2023-04-02T00:55:02.964Z,56.86
2023-04-02T00:56:02.973Z,58.28
2023-04-02T00:57:03.030Z,55.73
2023-04-02T00:58:02.994Z,57.08
2023-04-02T00:59:03.005Z,61.23
2023-04-02T01:00:03.012Z,56.66
2023-04-02T01:01:03.048Z,58.24
2023-04-02T01:02:03.016Z,55.45
2023-04-02T01:03:03.085Z,62.21
2023-04-02T01:04:03.073Z,55.41
2023-04-02T01:05:03.052Z,58.56
2023-04-02T01:06:03.052Z,58.72
2023-04-02T01:07:03.059Z,57.50
2023-04-02T01:08:03.077Z,57.61
2023-04-02T01:09:03.095Z,58.30
2023-04-02T01:10:03.097Z,56.59
2023-04-02T01:11:03.103Z,59.94
2023-04-02T01:12:03.104Z,54.87
2023-04-02T01:13:03.090Z,59.26
2023-04-02T01:14:03.072Z,55.66
2023-04-02T01:15:03.096Z,59.17
2023-04-02T01:16:03.199Z,57.75
2023-04-02T01:17:03.073Z,60.52
2023-04-02T01:18:03.132Z,56.86
2023-04-02T01:19:03.056Z,55.78
2023-04-02T01:20:03.048Z,57.98
2023-04-02T01:21:03.033Z,55.43
2023-04-02T01:22:03.049Z,57.36
2023-04-02T01:23:03.018Z,55.44
2023-04-02T01:24:03.018Z,57.27
2023-04-02T01:25:03.002Z,56.16
2023-04-02T01:26:02.990Z,59.14
2023-04-02T01:27:02.976Z,58.25
2023-04-02T01:28:02.997Z,54.99
2023-04-02T01:29:02.989Z,55.56
2023-04-02T01:30:02.993Z,54.81
2023-04-02T01:31:03.030Z,55.00
2023-04-02T01:32:03.011Z,54.10
2023-04-02T01:33:03.092Z,56.06
2023-04-02T01:34:03.061Z,54.81
2023-04-02T01:35:03.085Z,53.71
2023-04-02T01:36:03.118Z,58.03
2023-04-02T01:37:03.073Z,54.77
2023-04-02T01:38:03.084Z,56.03
2023-04-02T01:39:03.108Z,54.62
2023-04-02T01:40:03.122Z,56.25
2023-04-02T01:41:03.128Z,55.12
2023-04-02T01:42:03.126Z,54.08
2023-04-02T01:43:03.130Z,53.85
2023-04-02T01:44:03.151Z,52.55
2023-04-02T01:45:03.166Z,55.08
2023-04-02T01:46:03.168Z,53.36
2023-04-02T01:47:03.194Z,54.70
2023-04-02T01:48:03.244Z,56.19
2023-04-02T01:49:03.202Z,52.49
2023-04-02T01:50:03.223Z,57.51
2023-04-02T01:51:03.236Z,53.10
2023-04-02T01:52:03.233Z,56.30
2023-04-02T01:53:03.265Z,55.32
2023-04-02T01:54:03.261Z,52.17
2023-04-02T01:55:03.351Z,56.61
2023-04-02T01:56:03.274Z,54.62
2023-04-02T01:57:03.296Z,54.86
2023-04-02T01:58:03.272Z,55.06
2023-04-02T01:59:03.289Z,54.85
2023-04-02T02:00:03.275Z,56.04
2023-04-02T02:01:03.298Z,54.54
2023-04-02T02:02:03.293Z,56.86
2023-04-02T02:03:03.340Z,53.28
2023-04-02T02:04:03.266Z,54.70
2023-04-02T02:05:03.247Z,53.24
2023-04-02T02:06:03.240Z,54.41
2023-04-02T02:07:03.226Z,56.42
2023-04-02T02:08:03.226Z,53.17
2023-04-02T02:09:03.191Z,56.02
2023-04-02T02:10:03.200Z,52.83
2023-04-02T02:11:03.171Z,54.78
2023-04-02T02:12:03.166Z,53.88
2023-04-02T02:13:03.157Z,53.97
2023-04-02T02:14:03.144Z,53.77
2023-04-02T02:15:03.138Z,54.17
2023-04-02T02:16:03.185Z,51.48
2023-04-02T02:17:03.105Z,52.50
2023-04-02T02:18:03.151Z,49.90
2023-04-02T02:19:03.095Z,56.01
2023-04-02T02:20:03.092Z,54.86
2023-04-02T02:21:03.086Z,52.46
2023-04-02T02:22:03.085Z,53.67
2023-04-02T02:23:03.072Z,53.82
2023-04-02T02:24:03.082Z,53.72
2023-04-02T02:25:03.059Z,53.92
2023-04-02T02:26:03.053Z,53.49
2023-04-02T02:27:03.025Z,52.91
2023-04-02T02:28:03.025Z,52.47
2023-04-02T02:29:03.017Z,53.45
2023-04-02T02:30:03.021Z,52.83
2023-04-02T02:31:02.991Z,56.21
2023-04-02T02:32:03.061Z,52.72
2023-04-02T02:33:03.022Z,53.06
2023-04-02T02:34:02.956Z,50.04
2023-04-02T02:35:02.957Z,52.65
2023-04-02T02:36:03.051Z,55.13
2023-04-02T02:37:02.922Z,52.41
2023-04-02T02:38:02.909Z,55.25
2023-04-02T02:39:02.906Z,50.82
2023-04-02T02:40:02.910Z,52.96
2023-04-02T02:41:02.875Z,53.55
2023-04-02T02:42:02.882Z,53.43
2023-04-02T02:43:02.848Z,54.51
2023-04-02T02:44:02.848Z,54.83
2023-04-02T02:45:02.853Z,54.34
2023-04-02T02:46:02.857Z,53.58
2023-04-02T02:47:02.818Z,52.88
2023-04-02T02:48:02.811Z,51.15
2023-04-02T02:49:02.786Z,51.10
2023-04-02T02:50:02.789Z,58.19
2023-04-02T02:51:02.756Z,53.58
2023-04-02T02:52:02.793Z,51.57
2023-04-02T02:53:02.783Z,53.56
2023-04-02T02:54:02.785Z,54.99
2023-04-02T02:55:02.818Z,52.71
2023-04-02T02:56:02.807Z,51.39
2023-04-02T02:57:02.877Z,50.43
2023-04-02T02:58:02.834Z,50.78
2023-04-02T02:59:02.856Z,48.58
2023-04-02T03:00:02.871Z,49.50
2023-04-02T03:01:02.905Z,51.19
2023-04-02T03:02:02.913Z,52.31
2023-04-02T03:03:03.034Z,53.54
2023-04-02T03:04:03.080Z,53.69
2023-04-02T03:05:02.922Z,51.75
2023-04-02T03:06:02.935Z,52.93
2023-04-02T03:07:02.898Z,51.28
2023-04-02T03:08:02.881Z,50.95
2023-04-02T03:09:02.882Z,52.97
2023-04-02T03:10:02.870Z,50.72
2023-04-02T03:11:02.873Z,52.59
2023-04-02T03:12:02.854Z,55.54
2023-04-02T03:13:02.847Z,52.27
2023-04-02T03:14:02.845Z,50.15
2023-04-02T03:15:02.849Z,50.34
2023-04-02T03:16:02.897Z,50.67
2023-04-02T03:17:02.829Z,50.52
2023-04-02T03:18:02.847Z,50.93
2023-04-02T03:19:02.833Z,51.49
2023-04-02T03:20:02.821Z,50.39
2023-04-02T03:21:02.854Z,51.76
2023-04-02T03:22:02.830Z,52.38
2023-04-02T03:23:02.792Z,51.97
2023-04-02T03:24:02.778Z,51.68
2023-04-02T03:25:02.808Z,49.79
2023-04-02T03:26:02.764Z,50.04
2023-04-02T03:27:02.812Z,51.82
2023-04-02T03:28:02.789Z,52.68
2023-04-02T03:29:02.735Z,51.66
2023-04-02T03:30:02.727Z,51.31
2023-04-02T03:31:02.775Z,51.76
2023-04-02T03:32:02.724Z,52.15
2023-04-02T03:33:02.719Z,53.12
2023-04-02T03:34:02.692Z,50.04
2023-04-02T03:35:02.672Z,51.58
2023-04-02T03:36:02.698Z,49.85
2023-04-02T03:37:02.658Z,50.21
2023-04-02T03:38:02.642Z,48.85
2023-04-02T03:39:02.629Z,53.38
2023-04-02T03:40:02.641Z,52.87
2023-04-02T03:41:02.645Z,47.76
2023-04-02T03:42:02.636Z,50.52
2023-04-02T03:43:02.632Z,51.45
2023-04-02T03:44:02.655Z,48.37
2023-04-02T03:45:02.651Z,51.31
2023-04-02T03:46:02.723Z,50.75
2023-04-02T03:47:02.685Z,49.50
2023-04-02T03:48:02.709Z,48.85
2023-04-02T03:49:02.725Z,49.98
2023-04-02T03:50:02.743Z,46.02
2023-04-02T03:51:02.759Z,43.96
2023-04-02T03:52:02.798Z,43.92
2023-04-02T03:53:02.796Z,43.70
2023-04-02T03:54:02.821Z,47.46
2023-04-02T03:55:02.836Z,38.48
2023-04-02T03:56:02.861Z,42.80
2023-04-02T03:57:02.948Z,36.34
2023-04-02T03:58:02.905Z,33.82
2023-04-02T03:59:02.919Z,37.08
2023-04-02T04:00:02.931Z,37.29
2023-04-02T04:01:02.912Z,35.63
2023-04-02T04:02:02.947Z,29.87
2023-04-02T04:03:02.950Z,27.57
2023-04-02T04:04:02.959Z,26.55
2023-04-02T04:05:02.872Z,29.13
2023-04-02T04:06:02.874Z,26.59
2023-04-02T04:07:02.845Z,26.09
2023-04-02T04:08:02.838Z,28.84
2023-04-02T04:09:02.825Z,26.99
2023-04-02T04:10:02.815Z,30.26
2023-04-02T04:11:02.893Z,31.01
2023-04-02T04:12:02.795Z,25.20
2023-04-02T04:13:02.774Z,25.88
2023-04-02T04:14:02.773Z,25.97
2023-04-02T04:15:02.774Z,29.78
2023-04-02T04:16:02.753Z,27.51
2023-04-02T04:17:02.725Z,26.67
2023-04-02T04:18:02.799Z,25.37
2023-04-02T04:19:02.732Z,26.32
2023-04-02T04:20:02.759Z,29.75
2023-04-02T04:21:02.743Z,31.44
2023-04-02T04:22:02.768Z,32.85
2023-04-02T04:23:02.744Z,32.86
2023-04-02T04:24:02.740Z,29.72
2023-04-02T04:25:02.729Z,28.00
2023-04-02T04:26:02.712Z,27.08
2023-04-02T04:27:02.718Z,30.35
2023-04-02T04:28:02.690Z,27.79
2023-04-02T04:29:02.686Z,25.94
2023-04-02T04:30:02.672Z,26.17
2023-04-02T04:31:02.681Z,26.34
2023-04-02T04:32:02.695Z,27.03
2023-04-02T04:33:02.695Z,25.07
2023-04-02T04:34:02.664Z,24.79
2023-04-02T04:35:02.681Z,26.73
2023-04-02T04:36:02.678Z,29.92
2023-04-02T04:37:02.624Z,29.48
2023-04-02T04:38:02.630Z,26.92
2023-04-02T04:39:02.599Z,28.74
2023-04-02T04:40:02.601Z,26.66
2023-04-02T04:41:02.602Z,26.17
2023-04-02T04:42:02.591Z,29.59
2023-04-02T04:43:02.594Z,26.89
2023-04-02T04:44:02.567Z,31.48
2023-04-02T04:45:02.576Z,26.14
2023-04-02T04:46:02.608Z,28.36
2023-04-02T04:47:02.582Z,29.40
2023-04-02T04:48:02.591Z,28.98
2023-04-02T04:49:02.528Z,28.30
2023-04-02T04:50:02.542Z,32.56
2023-04-02T04:51:02.559Z,26.20
2023-04-02T04:52:02.599Z,29.00
2023-04-02T04:53:02.589Z,27.11
2023-04-02T04:54:02.646Z,27.43
2023-04-02T04:55:02.662Z,30.29
2023-04-02T04:56:15.993Z,27.70
2023-04-02T04:57:03.717Z,27.83
2023-04-02T04:58:02.648Z,27.85
2023-04-02T04:59:02.661Z,27.25
2023-04-02T05:00:02.631Z,27.19
2023-04-02T05:01:02.640Z,30.85
2023-04-02T05:02:02.628Z,28.54
2023-04-02T05:03:02.640Z,25.00
2023-04-02T05:04:02.597Z,29.02
2023-04-02T05:05:02.697Z,29.17
2023-04-02T05:06:02.602Z,29.42
2023-04-02T05:07:02.595Z,29.18
2023-04-02T05:08:02.570Z,28.57
2023-04-02T05:09:02.539Z,27.58
2023-04-02T05:10:02.536Z,25.57
2023-04-02T05:11:02.525Z,26.02
2023-04-02T05:12:02.529Z,31.26
2023-04-02T05:13:02.502Z,29.69
2023-04-02T05:14:02.496Z,28.89
2023-04-02T05:15:02.518Z,28.61
2023-04-02T05:16:02.566Z,28.64
2023-04-02T05:17:02.475Z,29.15
2023-04-02T05:18:02.498Z,27.65
2023-04-02T05:19:02.449Z,25.00
2023-04-02T05:20:02.431Z,29.98
2023-04-02T05:21:02.585Z,28.22
2023-04-02T05:22:02.444Z,27.53
2023-04-02T05:23:02.446Z,27.98
2023-04-02T05:24:02.479Z,27.70
2023-04-02T05:25:02.481Z,26.03
2023-04-02T05:26:02.516Z,30.01
2023-04-02T05:27:02.538Z,27.73
2023-04-02T05:28:02.554Z,26.32
2023-04-02T05:29:02.575Z,26.96
2023-04-02T05:30:02.603Z,24.36
2023-04-02T05:31:02.641Z,25.10
2023-04-02T05:32:02.660Z,27.55
2023-04-02T05:33:02.698Z,28.27
2023-04-02T05:34:02.667Z,27.73
2023-04-02T05:35:02.697Z,29.24
2023-04-02T05:36:02.743Z,27.15
2023-04-02T05:37:04.031Z,29.47
2023-04-02T05:38:02.784Z,29.77
2023-04-02T05:39:02.795Z,30.28
2023-04-02T05:40:02.805Z,29.19
2023-04-02T05:41:02.803Z,30.08
2023-04-02T05:42:02.816Z,28.84
2023-04-02T05:43:02.846Z,30.83
2023-04-02T05:44:02.855Z,31.18
2023-04-02T05:45:02.879Z,30.53
2023-04-02T05:46:02.918Z,31.42
2023-04-02T05:47:02.953Z,29.50
2023-04-02T05:48:03.004Z,31.62
2023-04-02T05:49:02.971Z,31.33
2023-04-02T05:50:02.977Z,32.35
2023-04-02T05:51:02.993Z,29.31
2023-04-02T05:52:03.006Z,29.53
2023-04-02T05:53:03.044Z,28.86
2023-04-02T05:54:03.061Z,29.15
2023-04-02T05:55:03.070Z,29.80
2023-04-02T05:56:03.099Z,31.14
2023-04-02T05:57:03.145Z,28.86
2023-04-02T05:58:29.549Z,29.31
2023-04-02T05:59:04.130Z,29.44
2023-04-02T06:00:03.162Z,29.74
2023-04-02T06:01:03.124Z,30.50
2023-04-02T06:02:03.204Z,29.48
2023-04-02T06:03:03.319Z,29.78
2023-04-02T06:04:03.127Z,30.03
2023-04-02T06:05:03.083Z,29.37
2023-04-02T06:06:03.071Z,32.24
2023-04-02T06:07:03.056Z,28.68
2023-04-02T06:08:03.054Z,30.94
2023-04-02T06:09:03.057Z,28.13
2023-04-02T06:10:03.055Z,29.98
2023-04-02T06:11:03.039Z,30.65
2023-04-02T06:12:03.038Z,28.02
2023-04-02T06:13:03.047Z,25.00
2023-04-02T06:14:03.048Z,31.24
2023-04-02T06:15:03.039Z,29.85
2023-04-02T06:16:03.043Z,28.16
2023-04-02T06:17:03.071Z,29.25
2023-04-02T06:18:03.051Z,28.28
2023-04-02T06:19:03.010Z,27.86
2023-04-02T06:20:03.010Z,26.00
2023-04-02T06:21:02.993Z,29.65
2023-04-02T06:22:02.992Z,31.16
2023-04-02T06:23:03.012Z,30.63
2023-04-02T06:24:03.029Z,29.15
2023-04-02T06:25:03.068Z,30.38
2023-04-02T06:26:03.093Z,33.50
2023-04-02T06:27:03.109Z,31.71
2023-04-02T06:28:03.122Z,29.65
2023-04-02T06:29:03.142Z,29.74
2023-04-02T06:30:03.108Z,28.86
2023-04-02T06:31:03.105Z,29.72
2023-04-02T06:32:03.092Z,27.13
2023-04-02T06:33:03.156Z,28.87
2023-04-02T06:34:03.074Z,27.58
2023-04-02T06:35:03.068Z,27.75
2023-04-02T06:36:03.073Z,28.20
2023-04-02T06:37:03.040Z,28.23
2023-04-02T06:38:03.076Z,30.85
2023-04-02T06:39:03.041Z,30.12
2023-04-02T06:40:03.022Z,28.13
2023-04-02T06:41:03.020Z,29.38
2023-04-02T06:42:03.052Z,29.49
2023-04-02T06:43:03.019Z,30.06
2023-04-02T06:44:03.017Z,29.57
2023-04-02T06:45:02.994Z,29.61
2023-04-02T06:46:03.007Z,29.55
2023-04-02T06:47:03.001Z,29.86
2023-04-02T06:48:03.007Z,30.99
2023-04-02T06:49:02.957Z,28.98
2023-04-02T06:50:02.951Z,26.95
2023-04-02T06:51:02.932Z,28.94
2023-04-02T06:52:02.919Z,29.08
2023-04-02T06:53:02.936Z,29.35
2023-04-02T06:54:02.911Z,29.34
2023-04-02T06:55:02.999Z,29.18
2023-04-02T06:56:02.894Z,26.83
2023-04-02T06:57:02.920Z,25.99
2023-04-02T06:58:02.872Z,25.06
2023-04-02T06:59:02.881Z,25.24
2023-04-02T07:00:02.855Z,25.66
2023-04-02T07:01:02.909Z,26.20
2023-04-02T07:02:02.846Z,25.40
2023-04-02T07:03:02.909Z,26.61
2023-04-02T07:04:02.824Z,30.06
2023-04-02T07:05:02.892Z,28.36
2023-04-02T07:06:02.820Z,26.90
2023-04-02T07:07:02.817Z,30.87
2023-04-02T07:08:02.787Z,26.85
2023-04-02T07:09:02.777Z,30.25
2023-04-02T07:10:02.781Z,25.70
2023-04-02T07:11:02.767Z,24.29
2023-04-02T07:12:02.748Z,30.91
2023-04-02T07:13:02.785Z,29.10
2023-04-02T07:14:02.756Z,30.06
2023-04-02T07:15:02.717Z,30.47
2023-04-02T07:16:02.762Z,31.85
2023-04-02T07:17:02.748Z,34.03
2023-04-02T07:18:02.737Z,36.10
2023-04-02T07:19:02.692Z,34.06
2023-04-02T07:20:02.664Z,33.89
2023-04-02T07:21:02.657Z,35.69
2023-04-02T07:22:02.655Z,34.48
2023-04-02T07:23:02.676Z,35.71
2023-04-02T07:24:02.663Z,34.72
2023-04-02T07:25:02.659Z,36.08
2023-04-02T07:26:02.664Z,36.73
2023-04-02T07:27:02.680Z,38.47
2023-04-02T07:28:02.686Z,38.61
2023-04-02T07:29:02.632Z,38.59
2023-04-02T07:30:02.643Z,39.29
2023-04-02T07:31:02.635Z,39.04
2023-04-02T07:32:02.606Z,40.99
2023-04-02T07:33:02.633Z,40.47
2023-04-02T07:34:02.582Z,39.49
2023-04-02T07:35:02.583Z,39.96
2023-04-02T07:36:02.633Z,39.50
2023-04-02T07:37:02.556Z,40.02
2023-04-02T07:38:02.547Z,38.82
2023-04-02T07:39:02.561Z,40.33
2023-04-02T07:40:02.537Z,40.08
2023-04-02T07:41:02.550Z,38.78
2023-04-02T07:42:02.527Z,39.15
2023-04-02T07:43:02.541Z,38.59
2023-04-02T07:44:02.524Z,39.52
2023-04-02T07:45:05.335Z,40.14
2023-04-02T07:46:02.500Z,40.20
2023-04-02T07:47:02.577Z,36.36
2023-04-02T07:48:02.479Z,37.35
2023-04-02T07:49:02.428Z,37.49
2023-04-02T07:50:02.412Z,35.71
2023-04-02T07:51:02.404Z,35.35
2023-04-02T07:52:02.381Z,33.50
2023-04-02T07:53:02.363Z,34.80
2023-04-02T07:54:02.370Z,33.20
2023-04-02T07:55:02.346Z,33.16
2023-04-02T07:56:02.342Z,31.94
2023-04-02T07:57:02.319Z,32.38
2023-04-02T07:58:02.313Z,30.54
2023-04-02T07:59:02.276Z,29.94
2023-04-02T08:00:02.273Z,32.30
2023-04-02T08:01:02.250Z,32.41
2023-04-02T08:02:02.293Z,32.83
2023-04-02T08:03:02.315Z,32.45
2023-04-02T08:04:02.200Z,32.80
2023-04-02T08:05:02.178Z,32.76
2023-04-02T08:06:02.158Z,33.42
2023-04-02T08:07:02.232Z,30.65
2023-04-02T08:08:02.153Z,33.85
2023-04-02T08:09:02.125Z,33.42
2023-04-02T08:10:02.112Z,31.78
2023-04-02T08:11:02.093Z,30.14
2023-04-02T08:12:02.068Z,33.27
2023-04-02T08:13:02.063Z,31.74
2023-04-02T08:14:02.095Z,31.74
2023-04-02T08:15:02.146Z,33.68
2023-04-02T08:16:02.139Z,32.27
2023-04-02T08:17:02.236Z,34.05
2023-04-02T08:18:02.180Z,36.51
2023-04-02T08:19:02.150Z,35.89
2023-04-02T08:20:02.149Z,37.62
2023-04-02T08:21:02.195Z,32.88
2023-04-02T08:22:02.215Z,36.31
2023-04-02T08:23:02.228Z,39.92
2023-04-02T08:24:02.242Z,40.03
2023-04-02T08:25:02.210Z,41.07
2023-04-02T08:26:02.212Z,37.83
2023-04-02T08:27:02.202Z,38.15
2023-04-02T08:28:02.201Z,38.98
2023-04-02T08:29:02.197Z,40.43
2023-04-02T08:30:02.169Z,41.45
2023-04-02T08:31:02.249Z,43.82
2023-04-02T08:32:02.136Z,42.83
2023-04-02T08:33:02.167Z,41.08
2023-04-02T08:34:02.105Z,46.34
2023-04-02T08:35:02.102Z,40.46
2023-04-02T08:36:02.099Z,37.83
2023-04-02T08:37:02.062Z,37.74
2023-04-02T08:38:02.078Z,40.90
2023-04-02T08:39:02.043Z,44.95
2023-04-02T08:40:02.013Z,46.89
2023-04-02T08:41:02.007Z,38.54
2023-04-02T08:42:01.971Z,35.87
2023-04-02T08:43:01.965Z,39.58
2023-04-02T08:44:01.949Z,37.74
2023-04-02T08:45:08.087Z,41.81
2023-04-02T08:46:01.946Z,41.95
2023-04-02T08:47:01.913Z,41.91
2023-04-02T08:48:01.978Z,36.71
2023-04-02T08:49:01.897Z,35.46
2023-04-02T08:50:01.887Z,38.93
2023-04-02T08:51:01.883Z,37.46
2023-04-02T08:52:01.856Z,32.48
2023-04-02T08:53:01.860Z,30.36
2023-04-02T08:54:01.837Z,35.85
2023-04-02T08:55:01.886Z,33.28
2023-04-02T08:56:01.819Z,30.77
2023-04-02T08:57:01.880Z,27.24
2023-04-02T08:58:01.797Z,25.00
2023-04-02T08:59:01.797Z,27.20
2023-04-02T09:00:01.785Z,25.97
2023-04-02T09:01:01.837Z,28.38
2023-04-02T09:02:02.077Z,26.66
2023-04-02T09:03:01.958Z,27.19
2023-04-02T09:04:01.972Z,27.35
2023-04-02T09:05:02.017Z,33.33
2023-04-02T09:06:02.042Z,31.19
2023-04-02T09:07:02.096Z,31.34
2023-04-02T09:08:02.105Z,31.56
2023-04-02T09:09:02.089Z,30.55
2023-04-02T09:10:02.082Z,31.36
2023-04-02T09:11:02.060Z,32.20
2023-04-02T09:12:02.056Z,31.15
2023-04-02T09:13:02.034Z,30.37
2023-04-02T09:14:02.065Z,30.49
2023-04-02T09:15:02.013Z,30.28
2023-04-02T09:16:01.999Z,28.18
2023-04-02T09:17:02.036Z,26.93
2023-04-02T09:18:02.097Z,29.61
2023-04-02T09:19:02.133Z,32.14
2023-04-02T09:20:02.180Z,30.76
2023-04-02T09:21:02.251Z,30.92
2023-04-02T09:22:02.310Z,31.90
2023-04-02T09:23:02.377Z,31.67
2023-04-02T09:24:04.025Z,28.18
2023-04-02T09:25:02.362Z,27.61
2023-04-02T09:26:04.911Z,32.82
2023-04-02T09:27:02.355Z,33.01
2023-04-02T09:28:02.286Z,31.59
2023-04-02T09:29:02.285Z,29.54
2023-04-02T09:30:02.264Z,28.93
2023-04-02T09:31:02.239Z,25.55
2023-04-02T09:32:02.302Z,28.79
2023-04-02T09:33:02.277Z,33.82
2023-04-02T09:34:02.204Z,32.04
2023-04-02T09:35:04.145Z,26.71
2023-04-02T09:36:03.141Z,27.01
2023-04-02T09:37:02.108Z,27.86
2023-04-02T09:38:02.095Z,29.13
2023-04-02T09:39:02.068Z,28.19
2023-04-02T09:40:02.047Z,32.87
2023-04-02T09:41:02.159Z,34.38
2023-04-02T09:42:05.844Z,37.09
2023-04-02T09:43:02.007Z,36.65
2023-04-02T09:44:02.004Z,32.64
2023-04-02T09:45:02.015Z,37.94
2023-04-02T09:46:01.991Z,32.10
2023-04-02T09:47:02.024Z,40.00
2023-04-02T09:48:02.073Z,37.95
2023-04-02T09:49:01.936Z,41.06
2023-04-02T09:50:01.927Z,36.04
2023-04-02T09:51:01.927Z,28.96
2023-04-02T09:52:01.904Z,29.44
2023-04-02T09:53:01.900Z,26.88
2023-04-02T09:54:01.888Z,21.07
2023-04-02T09:55:01.872Z,32.06
2023-04-02T09:56:01.865Z,38.54
2023-04-02T09:57:01.908Z,44.92
2023-04-02T09:58:02.127Z,46.73
2023-04-02T09:59:01.861Z,45.24
2023-04-02T10:00:01.936Z,46.56
2023-04-02T10:01:01.996Z,51.93
2023-04-02T10:02:02.029Z,50.41
2023-04-02T10:03:02.137Z,54.43
2023-04-02T10:04:02.201Z,46.09
2023-04-02T10:05:02.204Z,47.72
2023-04-02T10:06:02.261Z,48.73
2023-04-02T10:07:02.314Z,46.42
2023-04-02T10:08:02.397Z,45.89
2023-04-02T10:09:02.425Z,49.56
2023-04-02T10:10:02.546Z,52.66
2023-04-02T10:11:02.533Z,53.38
2023-04-02T10:12:02.534Z,53.53
2023-04-02T10:13:02.566Z,53.63
2023-04-02T10:14:02.528Z,54.30
2023-04-02T10:15:02.513Z,55.84
2023-04-02T10:16:02.560Z,53.93
2023-04-02T10:17:02.541Z,54.01
2023-04-02T10:18:02.548Z,55.32
2023-04-02T10:19:02.482Z,58.46
2023-04-02T10:20:02.473Z,57.60
2023-04-02T10:21:02.468Z,57.01
2023-04-02T10:22:02.517Z,56.27
2023-04-02T10:23:03.316Z,59.50
2023-04-02T10:24:02.618Z,60.35
2023-04-02T10:25:02.686Z,59.91
2023-04-02T10:26:02.747Z,59.17
2023-04-02T10:27:02.789Z,59.41
2023-04-02T10:28:02.856Z,59.45
2023-04-02T10:29:03.562Z,59.56
2023-04-02T10:30:02.974Z,58.36
2023-04-02T10:31:03.044Z,58.74
2023-04-02T10:32:03.072Z,60.14
2023-04-02T10:33:03.135Z,58.53
2023-04-02T10:34:03.186Z,59.28
2023-04-02T10:35:03.249Z,59.26
2023-04-02T10:36:03.333Z,62.42
2023-04-02T10:37:03.354Z,59.95
2023-04-02T10:38:03.400Z,62.43
2023-04-02T10:39:03.402Z,62.43
2023-04-02T10:40:03.451Z,59.70
2023-04-02T10:41:03.504Z,58.25
2023-04-02T10:42:03.527Z,57.74
2023-04-02T10:43:03.570Z,59.13
2023-04-02T10:44:13.089Z,59.21
2023-04-02T10:45:04.598Z,58.54
2023-04-02T10:46:03.588Z,57.51
2023-04-02T10:47:03.563Z,59.98
2023-04-02T10:48:03.633Z,59.43
2023-04-02T10:49:03.594Z,57.89
2023-04-02T10:50:03.573Z,58.29
2023-04-02T10:51:03.530Z,59.22
2023-04-02T10:52:03.549Z,59.97
2023-04-02T10:53:03.599Z,58.08
2023-04-02T10:54:03.657Z,61.27
2023-04-02T10:55:03.722Z,56.49
2023-04-02T10:56:03.757Z,57.25
2023-04-02T10:57:03.825Z,58.72
2023-04-02T10:58:03.880Z,60.19
2023-04-02T10:59:03.950Z,58.49
2023-04-02T11:00:03.930Z,58.68
2023-04-02T11:01:03.918Z,58.56
2023-04-02T11:02:03.959Z,58.08
2023-04-02T11:03:03.942Z,58.66
2023-04-02T11:04:03.869Z,59.48
2023-04-02T11:05:03.855Z,57.97
2023-04-02T11:06:03.843Z,58.41
2023-04-02T11:07:13.144Z,62.19
2023-04-02T11:08:04.817Z,62.33
2023-04-02T11:09:03.812Z,62.52
2023-04-02T11:10:03.811Z,58.73
2023-04-02T11:11:04.708Z,59.26
2023-04-02T11:12:03.770Z,60.43
2023-04-02T11:13:03.764Z,58.94
2023-04-02T11:14:03.745Z,59.19
2023-04-02T11:15:03.741Z,57.96
2023-04-02T11:16:03.780Z,58.25
2023-04-02T11:17:03.802Z,57.93
2023-04-02T11:18:03.869Z,54.62
2023-04-02T11:19:03.890Z,51.03
2023-04-02T11:20:03.950Z,54.14
2023-04-02T11:21:04.012Z,51.69
2023-04-02T11:22:06.485Z,53.59
2023-04-02T11:23:04.040Z,56.98
2023-04-02T11:24:04.039Z,56.92
2023-04-02T11:25:04.024Z,56.12
2023-04-02T11:26:04.014Z,57.31
2023-04-02T11:27:04.021Z,57.99
2023-04-02T11:28:03.998Z,61.13
2023-04-02T11:29:03.988Z,61.95
2023-04-02T11:30:04.094Z,62.62
2023-04-02T11:31:03.984Z,60.62
2023-04-02T11:32:03.956Z,62.20
2023-04-02T11:33:03.957Z,60.53
2023-04-02T11:34:03.931Z,57.04
2023-04-02T11:35:07.525Z,57.36
2023-04-02T11:36:03.951Z,57.37
2023-04-02T11:37:03.894Z,58.18
2023-04-02T11:38:03.894Z,57.57
2023-04-02T11:39:14.701Z,58.69
2023-04-02T11:40:04.873Z,57.49
2023-04-02T11:41:03.860Z,58.61
2023-04-02T11:42:03.859Z,57.45
2023-04-02T11:43:03.850Z,57.84
2023-04-02T11:44:03.843Z,59.96
2023-04-02T11:45:03.819Z,59.85
2023-04-02T11:46:03.832Z,57.45
2023-04-02T11:47:03.790Z,56.44
2023-04-02T11:48:03.881Z,62.31
2023-04-02T11:49:03.788Z,55.95
2023-04-02T11:50:03.811Z,59.68
2023-04-02T11:51:03.824Z,56.67
2023-04-02T11:52:11.804Z,56.85
2023-04-02T11:53:03.791Z,56.76
2023-04-02T11:54:03.780Z,56.78
2023-04-02T11:55:03.769Z,56.73
2023-04-02T11:56:03.807Z,57.15
2023-04-02T11:57:03.761Z,57.07
2023-04-02T11:58:03.744Z,48.35
2023-04-02T11:59:03.699Z,45.70
2023-04-02T12:00:03.687Z,41.02
2023-04-02T12:01:03.668Z,39.77
2023-04-02T12:02:03.717Z,42.17
2023-04-02T12:03:03.759Z,43.59
2023-04-02T12:04:03.784Z,46.63
2023-04-02T12:05:03.884Z,40.09
2023-04-02T12:06:04.391Z,35.92
2023-04-02T12:07:03.915Z,32.96
2023-04-02T12:08:03.944Z,33.48
2023-04-02T12:09:04.000Z,33.50
2023-04-02T12:10:04.032Z,31.96
2023-04-02T12:11:04.117Z,35.28
2023-04-02T12:12:04.079Z,35.65
2023-04-02T12:13:04.081Z,35.90
2023-04-02T12:14:04.060Z,36.10
2023-04-02T12:15:04.030Z,31.84
2023-04-02T12:16:04.021Z,32.97
2023-04-02T12:17:04.099Z,30.89
2023-04-02T12:18:04.090Z,30.90
2023-04-02T12:19:03.975Z,30.99
2023-04-02T12:20:05.951Z,31.38
2023-04-02T12:21:03.952Z,30.14
2023-04-02T12:22:03.936Z,29.07
2023-04-02T12:23:03.930Z,31.48
2023-04-02T12:24:03.929Z,27.46
2023-04-02T12:25:03.957Z,29.03
2023-04-02T12:26:03.894Z,28.61
2023-04-02T12:27:03.949Z,26.81
2023-04-02T12:28:03.974Z,29.62
2023-04-02T12:29:04.011Z,29.44
2023-04-02T12:30:04.075Z,31.48
2023-04-02T12:31:04.175Z,29.68
2023-04-02T12:32:04.164Z,31.46
2023-04-02T12:33:04.240Z,27.09
2023-04-02T12:34:04.232Z,34.33
2023-04-02T12:35:04.285Z,31.93
2023-04-02T12:36:04.429Z,33.76
2023-04-02T12:37:04.409Z,33.81
2023-04-02T12:38:04.452Z,29.31
2023-04-02T12:39:04.430Z,29.51
2023-04-02T12:40:04.430Z,29.74
2023-04-02T12:41:04.404Z,30.29
2023-04-02T12:42:04.393Z,29.46
2023-04-02T12:43:04.377Z,29.69
2023-04-02T12:44:04.395Z,29.57
2023-04-02T12:45:04.338Z,29.77
2023-04-02T12:46:04.372Z,30.74
2023-04-02T12:47:04.304Z,34.71
2023-04-02T12:48:04.344Z,34.75
2023-04-02T12:49:04.280Z,31.25
2023-04-02T12:50:04.282Z,29.89
2023-04-02T12:51:04.349Z,30.15
2023-04-02T12:52:04.246Z,34.04